createdAt,value
2019-04-14T00:01:02.170Z,17.37
2019-04-14T00:03:50.090Z,17.10
2019-04-14T00:06:22.401Z,16.30
2019-04-14T00:08:52.304Z,15.90
2019-04-14T00:11:23.322Z,15.78
2019-04-14T00:13:54.457Z,15.73
2019-04-14T00:16:24.883Z,15.45
2019-04-14T00:18:55.538Z,16.67
2019-04-14T00:21:26.083Z,15.80
2019-04-14T00:23:56.634Z,15.80
2019-04-14T00:26:29.312Z,15.00
2019-04-14T00:28:59.936Z,15.63
2019-04-14T00:31:30.565Z,16.17
2019-04-14T00:34:01.357Z,16.10
2019-04-14T00:36:34.858Z,16.43
2019-04-14T00:39:05.418Z,15.93
2019-04-14T00:41:50.435Z,16.30
2019-04-14T00:44:16.844Z,15.73
2019-04-14T00:46:50.273Z,16.63
2019-04-14T00:49:20.012Z,18.20
2019-04-14T00:51:49.118Z,18.20
2019-04-14T00:54:18.176Z,17.55
2019-04-14T00:56:47.660Z,17.47
2019-04-14T00:59:17.619Z,17.13
2019-04-14T01:01:46.802Z,17.27
2019-04-14T01:04:18.743Z,16.30
2019-04-14T01:06:48.933Z,17.63
2019-04-14T01:09:17.980Z,17.40
2019-04-14T01:11:46.865Z,16.33
2019-04-14T01:14:16.898Z,15.50
2019-04-14T01:16:47.260Z,17.80
2019-04-14T01:19:17.639Z,17.07
2019-04-14T01:21:46.644Z,18.57
2019-04-14T01:24:16.352Z,18.07
2019-04-14T01:26:46.381Z,19.53
2019-04-14T01:29:16.491Z,17.53
2019-04-14T01:31:45.469Z,18.17
2019-04-14T01:34:15.172Z,18.10
2019-04-14T01:36:45.319Z,17.87
2019-04-14T01:39:15.456Z,17.50
2019-04-14T01:41:45.561Z,17.07
2019-04-14T01:44:15.565Z,16.40
2019-04-14T01:46:45.603Z,17.70
2019-04-14T01:49:15.698Z,16.57
2019-04-14T01:51:59.216Z,16.27
2019-04-14T01:54:40.935Z,17.37
2019-04-14T01:57:26.302Z,15.93
2019-04-14T01:59:55.295Z,16.70
2019-04-14T02:02:26.910Z,16.17
2019-04-14T02:04:56.045Z,16.77
2019-04-14T02:07:25.567Z,16.57
2019-04-14T02:09:55.370Z,18.30
2019-04-14T02:12:25.429Z,18.70
2019-04-14T02:14:54.682Z,16.63
2019-04-14T02:17:24.239Z,16.30
2019-04-14T02:19:54.532Z,15.93
2019-04-14T02:22:25.143Z,16.83
2019-04-14T02:24:54.911Z,17.70
2019-04-14T02:27:23.850Z,17.57
2019-04-14T02:29:53.839Z,18.83
2019-04-14T02:32:49.526Z,19.27
2019-04-14T02:35:20.937Z,18.90
2019-04-14T02:37:55.935Z,17.25
2019-04-14T02:40:27.303Z,18.57
2019-04-14T02:43:09.804Z,18.70
2019-04-14T02:45:31.725Z,20.13
2019-04-14T02:55:21.310Z,17.73
2019-04-14T02:57:52.835Z,17.53
2019-04-14T03:00:31.811Z,19.90
2019-04-14T03:02:59.295Z,18.30
2019-04-14T03:05:27.154Z,19.07
2019-04-14T03:07:59.973Z,19.17
2019-04-14T03:10:31.876Z,19.90
2019-04-14T03:13:09.309Z,17.07
2019-04-14T03:20:55.287Z,15.72
2019-04-14T03:23:36.565Z,15.93
2019-04-14T03:25:59.235Z,14.93
2019-04-14T03:38:36.499Z,12.80
2019-04-14T03:51:28.355Z,10.97
2019-04-14T03:53:32.078Z,10.53
2019-04-14T03:55:58.400Z,11.57
2019-04-14T03:58:22.642Z,11.07
2019-04-14T04:00:51.618Z,10.70
2019-04-14T04:03:21.681Z,10.75
2019-04-14T04:05:52.073Z,11.10
2019-04-14T04:08:22.259Z,9.87
2019-04-14T04:11:02.030Z,11.90
2019-04-14T04:13:32.273Z,10.77
2019-04-14T04:16:11.864Z,10.33
2019-04-14T04:18:50.890Z,10.60
2019-04-14T04:21:18.316Z,10.53
2019-04-14T04:23:55.432Z,10.40
2019-04-14T04:26:26.015Z,10.20
2019-04-14T04:29:13.609Z,9.43
2019-04-14T04:31:44.073Z,9.23
2019-04-14T04:34:16.175Z,10.20
2019-04-14T04:36:46.767Z,9.18
2019-04-14T04:39:17.196Z,9.93
2019-04-14T04:41:47.170Z,9.20
2019-04-14T04:44:16.208Z,9.53
2019-04-14T04:46:45.978Z,9.27
2019-04-14T04:49:20.903Z,10.00
2019-04-14T04:51:46.524Z,10.10
2019-04-14T04:54:16.743Z,9.33
2019-04-14T04:56:45.888Z,9.77
2019-04-14T04:59:14.959Z,10.43
2019-04-14T05:01:45.078Z,10.37
2019-04-14T05:04:15.328Z,9.77
2019-04-14T05:07:07.796Z,9.90
2019-04-14T05:09:40.509Z,10.13
2019-04-14T05:12:17.488Z,9.83
2019-04-14T05:14:54.486Z,10.27
2019-04-14T05:17:25.539Z,9.75
2019-04-14T05:19:54.547Z,8.77
2019-04-14T05:22:24.622Z,10.43
2019-04-14T05:24:54.954Z,9.63
2019-04-14T05:27:23.882Z,9.30
2019-04-14T05:29:53.638Z,9.70
2019-04-14T05:32:22.586Z,8.60
2019-04-14T05:34:52.186Z,9.07
2019-04-14T05:37:21.087Z,9.80
2019-04-14T05:39:50.502Z,9.37
2019-04-14T05:42:23.826Z,9.83
2019-04-14T05:44:50.114Z,9.90
2019-04-14T05:47:19.747Z,8.93
2019-04-14T05:49:52.705Z,9.33
2019-04-14T05:52:20.568Z,9.97
2019-04-14T05:54:49.570Z,9.87
2019-04-14T05:57:18.459Z,9.77
2019-04-14T05:59:48.396Z,9.10
2019-04-14T06:02:18.065Z,9.03
2019-04-14T06:04:48.186Z,9.77
2019-04-14T06:07:17.209Z,8.75
2019-04-14T06:09:46.091Z,10.30
2019-04-14T06:12:15.085Z,9.10
2019-04-14T06:14:44.078Z,9.43
2019-04-14T06:17:12.970Z,9.20
2019-04-14T06:19:41.860Z,11.90
2019-04-14T06:22:11.782Z,13.60
2019-04-14T06:24:40.667Z,10.33
2019-04-14T06:27:10.583Z,9.85
2019-04-14T06:29:39.478Z,10.17
2019-04-14T06:32:16.866Z,10.15
2019-04-14T06:34:47.291Z,10.83
2019-04-14T06:37:20.486Z,10.47
2019-04-14T06:39:53.778Z,9.97
2019-04-14T06:42:22.667Z,9.40
2019-04-14T06:44:51.560Z,10.27
2019-04-14T06:47:20.461Z,8.78
2019-04-14T06:49:49.572Z,9.37
2019-04-14T06:52:18.745Z,10.03
2019-04-14T06:54:47.992Z,9.73
2019-04-14T06:57:16.833Z,9.98
2019-04-14T06:59:45.730Z,9.60
2019-04-14T07:02:14.806Z,9.33
2019-04-14T07:04:45.251Z,9.37
2019-04-14T07:07:14.140Z,9.00
2019-04-14T07:09:43.036Z,9.20
2019-04-14T07:12:12.849Z,9.35
2019-04-14T07:14:41.939Z,10.63
2019-04-14T07:17:11.551Z,10.30
2019-04-14T07:19:40.541Z,9.53
2019-04-14T07:22:10.061Z,9.65
2019-04-14T07:24:39.042Z,9.57
2019-04-14T07:27:09.059Z,9.23
2019-04-14T07:29:45.222Z,9.30
2019-04-14T07:32:15.595Z,8.20
2019-04-14T07:35:02.561Z,8.97
2019-04-14T07:37:32.998Z,9.70
2019-04-14T07:40:03.419Z,8.53
2019-04-14T07:42:48.897Z,9.43
2019-04-14T07:45:35.611Z,9.03
2019-04-14T07:48:06.135Z,9.17
2019-04-14T07:50:36.564Z,9.47
2019-04-14T07:53:12.988Z,9.03
2019-04-14T07:55:46.325Z,9.85
2019-04-14T07:58:17.370Z,10.40
2019-04-14T08:00:47.800Z,9.10
2019-04-14T08:03:24.274Z,9.23
2019-04-14T08:05:53.153Z,9.40
2019-04-14T08:08:22.047Z,9.40
2019-04-14T08:10:50.942Z,10.00
2019-04-14T08:13:19.828Z,9.20
2019-04-14T08:15:48.926Z,9.55
2019-04-14T08:18:17.918Z,9.73
2019-04-14T08:20:46.807Z,9.83
2019-04-14T08:23:15.932Z,10.10
2019-04-14T08:25:44.897Z,9.90
2019-04-14T08:28:14.402Z,9.23
2019-04-14T08:30:43.407Z,9.83
2019-04-14T08:33:12.287Z,9.67
2019-04-14T08:35:41.178Z,10.17
2019-04-14T08:38:11.029Z,10.80
2019-04-14T08:40:40.097Z,9.63
2019-04-14T08:43:27.436Z,10.35
2019-04-14T08:45:57.842Z,10.00
2019-04-14T08:48:28.269Z,10.47
2019-04-14T08:50:58.693Z,10.37
2019-04-14T08:53:32.090Z,10.10
2019-04-14T08:56:02.722Z,9.87
2019-04-14T08:58:36.139Z,10.90
2019-04-14T09:01:06.617Z,10.08
2019-04-14T09:03:45.888Z,10.30
2019-04-14T09:06:16.431Z,10.00
2019-04-14T09:08:56.056Z,10.20
2019-04-14T09:11:26.484Z,10.35
2019-04-14T09:13:55.288Z,10.23
2019-04-14T09:16:24.161Z,10.87
2019-04-14T09:18:53.790Z,10.43
2019-04-14T09:21:22.763Z,10.73
2019-04-14T09:23:51.655Z,11.00
2019-04-14T09:26:20.650Z,10.28
2019-04-14T09:28:49.543Z,11.27
2019-04-14T09:31:18.434Z,11.08
2019-04-14T09:33:47.333Z,11.13
2019-04-14T09:36:16.215Z,10.87
2019-04-14T09:38:45.109Z,10.40
2019-04-14T09:41:14.003Z,10.63
2019-04-14T09:43:42.886Z,10.30
2019-04-14T09:46:12.598Z,10.85
2019-04-14T09:48:43.172Z,10.67
2019-04-14T09:51:12.739Z,10.57
2019-04-14T09:53:41.629Z,11.87
2019-04-14T09:56:10.824Z,11.50
2019-04-14T09:58:39.722Z,11.63
2019-04-14T10:01:09.610Z,10.57
2019-04-14T10:03:38.423Z,9.90
2019-04-14T10:06:08.538Z,12.00
2019-04-14T10:08:38.047Z,10.83
2019-04-14T10:11:06.939Z,12.00
2019-04-14T10:13:35.828Z,12.23
2019-04-14T10:16:04.823Z,11.73
2019-04-14T10:18:33.714Z,12.27
2019-04-14T10:21:02.605Z,11.10
2019-04-14T10:23:31.495Z,14.07
2019-04-14T10:26:00.390Z,12.60
2019-04-14T10:28:29.279Z,11.85
2019-04-14T10:30:58.170Z,12.98
2019-04-14T10:33:27.061Z,12.30
2019-04-14T10:35:56.055Z,11.97
2019-04-14T10:38:24.950Z,12.73
2019-04-14T10:40:53.839Z,12.57
2019-04-14T10:43:22.755Z,12.17
2019-04-14T10:45:51.620Z,12.30
2019-04-14T10:48:20.612Z,11.97
2019-04-14T10:50:49.508Z,12.77
2019-04-14T10:53:18.499Z,12.67
2019-04-14T10:55:47.396Z,12.97
2019-04-14T10:58:16.383Z,12.00
2019-04-14T11:00:45.274Z,12.47
2019-04-14T11:03:14.165Z,11.17
2019-04-14T11:05:53.706Z,12.93
2019-04-14T11:08:22.501Z,13.63
2019-04-14T11:10:52.922Z,12.47
2019-04-14T11:13:21.812Z,12.88
2019-04-14T11:15:50.702Z,12.87
2019-04-14T11:18:19.701Z,13.40
2019-04-14T11:20:48.589Z,12.53
2019-04-14T11:23:17.479Z,12.30
2019-04-14T11:25:46.372Z,12.77
2019-04-14T11:28:15.263Z,12.70
2019-04-14T11:30:44.152Z,12.60
2019-04-14T11:33:14.885Z,12.85
2019-04-14T11:35:46.544Z,13.03
2019-04-14T11:38:16.918Z,12.03
2019-04-14T11:40:47.398Z,12.73
2019-04-14T11:43:16.393Z,12.43
2019-04-14T11:45:45.282Z,10.97
2019-04-14T11:48:14.277Z,12.00
2019-04-14T11:50:43.271Z,11.90
2019-04-14T11:53:13.080Z,11.63
2019-04-14T11:55:43.326Z,12.67
2019-04-14T11:58:12.404Z,12.03
2019-04-14T12:00:55.018Z,12.07
2019-04-14T12:03:25.442Z,11.60
2019-04-14T12:05:58.947Z,12.47
2019-04-14T12:08:32.444Z,10.95
2019-04-14T12:11:01.330Z,11.27
2019-04-14T12:13:30.224Z,10.97
2019-04-14T12:15:59.113Z,10.00
2019-04-14T12:18:28.008Z,10.30
2019-04-14T12:20:56.898Z,11.30
2019-04-14T12:23:25.797Z,10.20
2019-04-14T12:26:04.725Z,10.33
2019-04-14T12:28:26.261Z,10.35
2019-04-14T12:30:55.591Z,10.40
2019-04-14T12:33:24.424Z,11.10
2019-04-14T12:35:53.722Z,11.00
2019-04-14T12:38:22.972Z,10.85
2019-04-14T12:40:52.443Z,11.00
2019-04-14T12:43:26.044Z,10.40
2019-04-14T12:46:13.158Z,10.60
2019-04-14T12:48:49.821Z,10.27
2019-04-14T12:51:26.413Z,11.00
2019-04-14T12:53:55.286Z,10.77
2019-04-14T12:56:25.712Z,9.68
2019-04-14T12:59:02.186Z,10.80
2019-04-14T13:01:48.886Z,9.87
2019-04-14T13:04:17.779Z,10.37
2019-04-14T13:06:46.673Z,10.07
2019-04-14T13:09:15.577Z,9.97
2019-04-14T13:11:44.453Z,9.20
2019-04-14T13:14:13.345Z,9.87
2019-04-14T13:16:42.396Z,10.23
2019-04-14T13:19:11.437Z,10.53
2019-04-14T13:21:40.566Z,9.00
2019-04-14T13:24:09.932Z,8.83
2019-04-14T13:26:38.928Z,9.13
2019-04-14T13:29:08.978Z,7.85
2019-04-14T13:31:37.848Z,9.53
2019-04-14T13:34:06.727Z,11.00
2019-04-14T13:36:35.625Z,11.97
2019-04-14T13:39:06.269Z,10.50
2019-04-14T13:41:35.965Z,11.20
2019-04-14T13:44:05.227Z,10.07
2019-04-14T13:46:34.160Z,10.63
2019-04-14T13:49:03.044Z,9.90
2019-04-14T13:51:31.934Z,9.17
2019-04-14T13:54:00.733Z,9.40
2019-04-14T13:56:29.610Z,9.70
2019-04-14T13:58:58.443Z,9.03
2019-04-14T14:01:27.241Z,9.65
2019-04-14T14:03:58.909Z,9.90
2019-04-14T14:06:27.750Z,9.30
2019-04-14T14:08:56.632Z,8.60
2019-04-14T14:11:43.547Z,9.13
2019-04-14T14:14:15.523Z,9.50
2019-04-14T14:17:02.320Z,8.97
2019-04-14T14:19:44.523Z,9.40
2019-04-14T14:22:14.951Z,9.70
2019-04-14T14:24:45.379Z,9.30
2019-04-14T14:27:14.371Z,8.40
2019-04-14T14:29:43.265Z,8.90
2019-04-14T14:32:19.632Z,8.47
2019-04-14T14:34:48.526Z,8.57
2019-04-14T14:37:17.516Z,8.57
2019-04-14T14:39:46.509Z,8.60
2019-04-14T14:42:15.403Z,8.30
2019-04-14T14:44:45.827Z,8.37
2019-04-14T14:47:16.256Z,9.05
2019-04-14T14:49:49.445Z,8.30
2019-04-14T14:52:19.872Z,7.37
2019-04-14T14:54:48.765Z,7.37
2019-04-14T14:57:17.760Z,7.95
2019-04-14T14:59:46.649Z,7.13
2019-04-14T15:02:15.643Z,8.03
2019-04-14T15:04:44.534Z,9.13
2019-04-14T15:07:13.425Z,7.20
2019-04-14T15:09:42.317Z,8.37
2019-04-14T15:12:13.462Z,6.83
2019-04-14T15:14:42.461Z,6.97
2019-04-14T15:17:11.553Z,7.00
2019-04-14T15:19:40.445Z,7.57
2019-04-14T15:22:10.255Z,7.25
2019-04-14T15:24:39.143Z,7.77
2019-04-14T15:27:09.165Z,8.88
2019-04-14T15:29:38.056Z,7.60
2019-04-14T15:32:06.893Z,8.63
2019-04-14T15:34:35.840Z,7.77
2019-04-14T15:37:04.635Z,8.57
2019-04-14T15:39:33.513Z,8.77
2019-04-14T15:42:02.410Z,8.70
2019-04-14T15:44:31.295Z,9.13
2019-04-14T15:47:00.188Z,8.00
2019-04-14T15:49:30.433Z,9.03
2019-04-14T15:51:59.301Z,7.80
2019-04-14T15:54:28.195Z,7.93
2019-04-14T15:57:04.663Z,8.93
2019-04-14T15:59:38.059Z,10.10
2019-04-14T16:02:11.324Z,8.90
2019-04-14T16:04:44.751Z,8.93
2019-04-14T16:07:31.562Z,10.03
2019-04-14T16:10:02.036Z,9.73
2019-04-14T16:12:47.777Z,8.80
2019-04-14T16:15:34.389Z,8.65
2019-04-14T16:18:16.892Z,9.67
2019-04-14T16:20:46.605Z,9.77
2019-04-14T16:23:15.607Z,9.87
2019-04-14T16:25:52.064Z,8.03
2019-04-14T16:28:22.493Z,8.60
2019-04-14T16:31:09.008Z,9.97
2019-04-14T16:33:39.533Z,10.27
2019-04-14T16:36:09.379Z,9.23
2019-04-14T16:38:38.233Z,9.87
2019-04-14T16:41:07.122Z,9.67
2019-04-14T16:43:36.012Z,9.70
2019-04-14T16:46:04.908Z,9.80
2019-04-14T16:48:33.804Z,10.20
2019-04-14T16:51:03.408Z,9.87
2019-04-14T16:53:33.931Z,9.07
2019-04-14T16:56:04.469Z,9.00
2019-04-14T16:58:37.863Z,8.80
2019-04-14T17:01:08.516Z,8.40
2019-04-14T17:03:37.315Z,9.10
2019-04-14T17:06:07.605Z,10.13
2019-04-14T17:08:37.112Z,9.33
2019-04-14T17:11:06.293Z,9.90
2019-04-14T17:13:36.682Z,9.97
2019-04-14T17:16:08.203Z,9.77
2019-04-14T17:18:44.354Z,9.83
2019-04-14T17:21:29.828Z,10.17
2019-04-14T17:24:10.641Z,11.07
2019-04-14T17:26:35.552Z,11.57
2019-04-14T17:29:06.034Z,11.60
2019-04-14T17:31:52.428Z,11.73
2019-04-14T17:34:38.937Z,12.03
2019-04-14T17:37:26.358Z,12.20
2019-04-14T17:40:08.770Z,13.00
2019-04-14T17:42:39.195Z,12.47
2019-04-14T17:45:17.247Z,12.37
2019-04-14T17:47:53.464Z,12.63
2019-04-14T17:50:41.295Z,12.57
2019-04-14T17:53:15.824Z,13.55
2019-04-14T17:55:52.316Z,12.27
2019-04-14T17:58:26.002Z,12.17
2019-04-14T18:01:12.302Z,11.30
2019-04-14T18:03:51.835Z,12.17
2019-04-14T18:06:24.339Z,11.20
2019-04-14T18:09:00.573Z,12.17
2019-04-14T18:11:31.003Z,11.47
2019-04-14T18:14:04.645Z,10.90
2019-04-14T18:16:35.237Z,11.83
2019-04-14T18:19:17.949Z,11.20
2019-04-14T18:21:46.843Z,11.43
2019-04-14T18:24:15.643Z,11.83
2019-04-14T18:26:44.523Z,12.00
2019-04-14T18:29:27.348Z,12.60
2019-04-14T18:31:57.769Z,13.13
2019-04-14T18:34:28.235Z,12.10
2019-04-14T18:36:58.723Z,12.17
2019-04-14T18:39:32.323Z,12.27
2019-04-14T18:42:18.736Z,11.97
2019-04-14T18:44:54.888Z,11.83
2019-04-14T18:47:41.257Z,12.45
2019-04-14T18:50:12.503Z,12.33
2019-04-14T18:53:01.397Z,12.27
2019-04-14T18:55:37.760Z,12.20
2019-04-14T18:58:23.451Z,12.03
2019-04-14T19:01:03.195Z,12.03
2019-04-14T19:03:32.188Z,11.53
2019-04-14T19:06:01.179Z,12.60
2019-04-14T19:08:30.071Z,12.10
2019-04-14T19:11:00.703Z,12.13
2019-04-14T19:13:31.136Z,11.53
2019-04-14T19:16:07.499Z,12.30
2019-04-14T19:18:40.738Z,12.13
2019-04-14T19:21:14.293Z,11.73
2019-04-14T19:23:46.198Z,12.57
2019-04-14T19:26:13.816Z,12.83
2019-04-14T19:28:42.707Z,12.90
2019-04-14T19:31:12.003Z,12.10
2019-04-14T19:33:40.899Z,12.17
2019-04-14T19:36:10.710Z,12.40
2019-04-14T19:38:39.602Z,12.50
2019-04-14T19:41:09.517Z,12.98
2019-04-14T19:43:38.407Z,12.90
2019-04-14T19:46:07.400Z,12.60
2019-04-14T19:48:36.397Z,12.20
2019-04-14T19:51:05.389Z,12.50
2019-04-14T19:53:34.403Z,13.00
2019-04-14T19:56:03.272Z,12.70
2019-04-14T19:58:32.164Z,12.70
2019-04-14T20:01:01.055Z,12.60
2019-04-14T20:03:29.944Z,12.20
2019-04-14T20:05:58.839Z,12.60
2019-04-14T20:08:27.833Z,12.73
2019-04-14T20:10:56.824Z,12.37
2019-04-14T20:13:27.560Z,13.62
2019-04-14T20:16:03.925Z,12.60
2019-04-14T20:18:50.940Z,12.17
2019-04-14T20:21:40.314Z,12.13
2019-04-14T20:24:11.353Z,12.68
2019-04-14T20:26:41.783Z,12.23
2019-04-14T20:29:12.620Z,12.93
2019-04-14T20:31:48.893Z,12.43
2019-04-14T20:34:17.775Z,13.68
2019-04-14T20:36:46.667Z,12.67
2019-04-14T20:39:16.069Z,13.33
2019-04-14T20:41:45.067Z,13.90
2019-04-14T20:44:14.265Z,12.50
2019-04-14T20:46:43.154Z,12.37
2019-04-14T20:49:14.006Z,12.93
2019-04-14T20:51:42.990Z,13.17
2019-04-14T20:54:13.004Z,13.00
2019-04-14T20:56:41.895Z,12.90
2019-04-14T20:59:11.601Z,12.95
2019-04-14T21:01:42.028Z,13.10
2019-04-14T21:04:25.678Z,13.53
2019-04-14T21:07:02.142Z,13.47
2019-04-14T21:09:35.173Z,12.20
2019-04-14T21:12:11.778Z,13.43
2019-04-14T21:14:48.572Z,12.87
2019-04-14T21:17:19.112Z,11.47
2019-04-14T21:19:49.531Z,11.97
2019-04-14T21:22:20.016Z,12.30
2019-04-14T21:24:59.501Z,12.03
2019-04-14T21:27:35.844Z,12.07
2019-04-14T21:30:09.136Z,12.27
2019-04-14T21:32:58.123Z,13.37
2019-04-14T21:35:28.599Z,12.80
2019-04-14T21:37:59.294Z,13.33
2019-04-14T21:40:47.835Z,12.87
2019-04-14T21:43:16.890Z,11.77
2019-04-14T21:45:45.922Z,12.20
2019-04-14T21:48:14.941Z,13.07
2019-04-14T21:50:43.806Z,12.50
2019-04-14T21:53:12.799Z,12.53
2019-04-14T21:55:41.690Z,12.37
2019-04-14T21:58:18.287Z,12.70
2019-04-14T22:01:06.507Z,12.33
2019-04-14T22:03:37.071Z,12.93
2019-04-14T22:06:13.272Z,11.87
2019-04-14T22:08:52.535Z,11.80
2019-04-14T22:11:23.176Z,12.80
2019-04-14T22:13:52.162Z,11.73
2019-04-14T22:16:21.052Z,11.75
2019-04-14T22:18:49.945Z,13.40
2019-04-14T22:21:18.834Z,12.93
2019-04-14T22:24:00.370Z,13.73
2019-04-14T22:26:25.912Z,12.73
2019-04-14T22:28:49.090Z,12.47
2019-04-14T22:31:18.091Z,11.85
2019-04-14T22:33:49.435Z,12.97
2019-04-14T22:36:18.329Z,13.57
2019-04-14T22:38:47.217Z,12.77
2019-04-14T22:41:16.112Z,13.47
2019-04-14T22:43:45.001Z,13.93
2019-04-14T22:46:15.531Z,13.83
2019-04-14T22:48:44.572Z,13.53
2019-04-14T22:51:13.413Z,13.37
2019-04-14T22:53:42.307Z,13.40
2019-04-14T22:56:11.913Z,14.13
2019-04-14T22:58:40.805Z,13.73
2019-04-14T23:01:11.744Z,13.77
2019-04-14T23:03:58.656Z,13.97
2019-04-14T23:06:41.372Z,13.70
2019-04-14T23:09:28.182Z,13.83
2019-04-14T23:11:58.612Z,14.17
2019-04-14T23:14:32.008Z,13.53
2019-04-14T23:17:20.458Z,13.03
2019-04-14T23:20:00.206Z,13.93
2019-04-14T23:22:47.015Z,14.55
2019-04-14T23:25:16.006Z,13.43
2019-04-14T23:27:44.899Z,13.20
2019-04-14T23:30:14.719Z,14.28
2019-04-14T23:32:43.603Z,13.47
2019-04-14T23:35:13.212Z,14.60
2019-04-14T23:37:42.101Z,15.03
2019-04-14T23:40:13.383Z,13.30
2019-04-14T23:42:42.240Z,13.00
2019-04-14T23:45:11.643Z,14.17
2019-04-14T23:47:40.535Z,14.07
2019-04-14T23:50:09.925Z,12.77
2019-04-14T23:52:38.929Z,14.00
2019-04-14T23:55:08.538Z,14.20
2019-04-14T23:57:37.431Z,15.00
